sensor_id;sensor_type;location;lat;lon;timestamp;pressure;altitude;pressure_sealevel;temperature;humidity
64967;BME280;51710;38.732;-121.358;2024-02-15T00:01:42;101065.78;;;15.49;69.21
64967;BME280;51710;38.732;-121.358;2024-02-15T00:04:08;101071.47;;;15.46;69.26
64967;BME280;51710;38.732;-121.358;2024-02-15T00:06:36;101081.78;;;15.43;69.00
64967;BME280;51710;38.732;-121.358;2024-02-15T00:09:03;101077.59;;;15.40;68.80
64967;BME280;51710;38.732;-121.358;2024-02-15T00:11:29;101071.38;;;15.40;69.03
64967;BME280;51710;38.732;-121.358;2024-02-15T00:13:55;101058.78;;;15.40;68.87
64967;BME280;51710;38.732;-121.358;2024-02-15T00:16:22;101040.00;;;15.40;68.88
64967;BME280;51710;38.732;-121.358;2024-02-15T00:18:48;101042.00;;;15.38;68.77
64967;BME280;51710;38.732;-121.358;2024-02-15T00:21:15;101058.94;;;15.39;68.69
64967;BME280;51710;38.732;-121.358;2024-02-15T00:23:42;101065.50;;;15.36;68.41
64967;BME280;51710;38.732;-121.358;2024-02-15T00:26:08;101066.34;;;15.37;68.57
64967;BME280;51710;38.732;-121.358;2024-02-15T00:28:37;101055.59;;;15.37;68.08
64967;BME280;51710;38.732;-121.358;2024-02-15T00:31:04;101072.56;;;15.37;68.73
64967;BME280;51710;38.732;-121.358;2024-02-15T00:33:30;101069.88;;;15.37;68.44
64967;BME280;51710;38.732;-121.358;2024-02-15T00:35:57;101077.25;;;15.35;68.92
64967;BME280;51710;38.732;-121.358;2024-02-15T00:38:24;101072.25;;;15.32;69.56
64967;BME280;51710;38.732;-121.358;2024-02-15T00:40:50;101065.94;;;15.25;70.08
64967;BME280;51710;38.732;-121.358;2024-02-15T00:43:16;101051.19;;;15.21;70.25
64967;BME280;51710;38.732;-121.358;2024-02-15T00:45:42;101041.81;;;15.17;70.55
64967;BME280;51710;38.732;-121.358;2024-02-15T00:48:09;101023.41;;;15.14;71.19
64967;BME280;51710;38.732;-121.358;2024-02-15T00:50:35;101034.31;;;15.13;71.33
64967;BME280;51710;38.732;-121.358;2024-02-15T00:53:02;101047.25;;;15.09;71.12
64967;BME280;51710;38.732;-121.358;2024-02-15T00:55:28;101069.72;;;15.08;70.90
64967;BME280;51710;38.732;-121.358;2024-02-15T00:57:54;101060.00;;;15.07;71.19
64967;BME280;51710;38.732;-121.358;2024-02-15T01:00:20;101063.25;;;15.03;71.47
64967;BME280;51710;38.732;-121.358;2024-02-15T01:02:47;101077.84;;;15.00;72.12
64967;BME280;51710;38.732;-121.358;2024-02-15T01:05:13;101078.00;;;14.99;72.28
64967;BME280;51710;38.732;-121.358;2024-02-15T01:07:41;101075.22;;;14.92;72.99
64967;BME280;51710;38.732;-121.358;2024-02-15T01:10:08;101080.78;;;14.83;73.72
64967;BME280;51710;38.732;-121.358;2024-02-15T01:12:34;101088.22;;;14.73;74.10
64967;BME280;51710;38.732;-121.358;2024-02-15T01:15:01;101111.88;;;14.61;75.09
64967;BME280;51710;38.732;-121.358;2024-02-15T01:17:28;101131.03;;;14.50;75.78
64967;BME280;51710;38.732;-121.358;2024-02-15T01:19:55;101117.13;;;14.38;76.81
64967;BME280;51710;38.732;-121.358;2024-02-15T01:22:21;101123.69;;;14.28;77.83
64967;BME280;51710;38.732;-121.358;2024-02-15T01:24:50;101129.06;;;14.20;77.85
64967;BME280;51710;38.732;-121.358;2024-02-15T01:27:17;101141.28;;;14.14;78.86
64967;BME280;51710;38.732;-121.358;2024-02-15T01:29:43;101132.41;;;14.06;79.29
64967;BME280;51710;38.732;-121.358;2024-02-15T01:32:10;101121.56;;;13.99;79.75
64967;BME280;51710;38.732;-121.358;2024-02-15T01:34:36;101111.00;;;13.90;80.79
64967;BME280;51710;38.732;-121.358;2024-02-15T01:37:02;101112.69;;;13.83;81.17
64967;BME280;51710;38.732;-121.358;2024-02-15T01:39:29;101120.75;;;13.75;81.71
64967;BME280;51710;38.732;-121.358;2024-02-15T01:41:55;101107.69;;;13.72;82.17
64967;BME280;51710;38.732;-121.358;2024-02-15T01:44:22;101115.41;;;13.67;82.72
64967;BME280;51710;38.732;-121.358;2024-02-15T01:46:51;101112.34;;;13.62;83.24
64967;BME280;51710;38.732;-121.358;2024-02-15T01:49:21;101117.72;;;13.62;83.60
64967;BME280;51710;38.732;-121.358;2024-02-15T01:51:50;101120.72;;;13.58;83.85
64967;BME280;51710;38.732;-121.358;2024-02-15T01:54:18;101140.66;;;13.56;84.15
64967;BME280;51710;38.732;-121.358;2024-02-15T01:56:46;101150.50;;;13.55;84.23
64967;BME280;51710;38.732;-121.358;2024-02-15T01:59:15;101165.25;;;13.60;84.57
64967;BME280;51710;38.732;-121.358;2024-02-15T02:01:42;101189.16;;;13.61;84.95
64967;BME280;51710;38.732;-121.358;2024-02-15T02:04:09;101201.34;;;13.55;85.86
64967;BME280;51710;38.732;-121.358;2024-02-15T02:06:37;101207.50;;;13.48;86.40
64967;BME280;51710;38.732;-121.358;2024-02-15T02:09:04;101215.38;;;13.41;86.67
64967;BME280;51710;38.732;-121.358;2024-02-15T02:11:30;101229.06;;;13.38;87.03
64967;BME280;51710;38.732;-121.358;2024-02-15T02:13:57;101232.06;;;13.35;87.70
64967;BME280;51710;38.732;-121.358;2024-02-15T02:16:27;101218.69;;;13.35;87.76
64967;BME280;51710;38.732;-121.358;2024-02-15T02:18:55;101231.59;;;13.40;87.80
64967;BME280;51710;38.732;-121.358;2024-02-15T02:21:28;101227.91;;;13.41;88.13
64967;BME280;51710;38.732;-121.358;2024-02-15T02:23:58;101221.56;;;13.42;88.18
64967;BME280;51710;38.732;-121.358;2024-02-15T02:26:25;101215.88;;;13.45;88.20
64967;BME280;51710;38.732;-121.358;2024-02-15T02:28:52;101213.88;;;13.47;88.47
64967;BME280;51710;38.732;-121.358;2024-02-15T02:31:19;101225.25;;;13.49;88.44
64967;BME280;51710;38.732;-121.358;2024-02-15T02:33:52;101213.38;;;13.51;88.59
64967;BME280;51710;38.732;-121.358;2024-02-15T02:36:19;101206.03;;;13.53;88.75
64967;BME280;51710;38.732;-121.358;2024-02-15T02:38:46;101201.53;;;13.54;88.67
64967;BME280;51710;38.732;-121.358;2024-02-15T02:41:16;101191.28;;;13.49;88.80
64967;BME280;51710;38.732;-121.358;2024-02-15T02:43:45;101161.84;;;13.49;88.91
64967;BME280;51710;38.732;-121.358;2024-02-15T02:46:12;101187.28;;;13.45;89.52
64967;BME280;51710;38.732;-121.358;2024-02-15T02:48:38;101184.78;;;13.44;89.36
64967;BME280;51710;38.732;-121.358;2024-02-15T02:51:06;101189.28;;;13.43;89.74
64967;BME280;51710;38.732;-121.358;2024-02-15T02:53:33;101191.28;;;13.41;89.78
64967;BME280;51710;38.732;-121.358;2024-02-15T02:55:59;101193.28;;;13.39;90.06
64967;BME280;51710;38.732;-121.358;2024-02-15T02:58:26;101193.28;;;13.39;90.07
64967;BME280;51710;38.732;-121.358;2024-02-15T03:00:52;101197.78;;;13.39;90.26
64967;BME280;51710;38.732;-121.358;2024-02-15T03:03:18;101196.97;;;13.38;90.29
64967;BME280;51710;38.732;-121.358;2024-02-15T03:05:45;101199.81;;;13.37;91.07
64967;BME280;51710;38.732;-121.358;2024-02-15T03:08:12;101192.78;;;13.36;91.28
64967;BME280;51710;38.732;-121.358;2024-02-15T03:10:38;101170.88;;;13.32;91.45
64967;BME280;51710;38.732;-121.358;2024-02-15T03:13:06;101176.53;;;13.29;91.84
64967;BME280;51710;38.732;-121.358;2024-02-15T03:15:35;101189.25;;;13.27;91.78
64967;BME280;51710;38.732;-121.358;2024-02-15T03:18:02;101203.13;;;13.23;92.11
64967;BME280;51710;38.732;-121.358;2024-02-15T03:20:33;101199.25;;;13.17;91.99
64967;BME280;51710;38.732;-121.358;2024-02-15T03:23:00;101187.19;;;13.13;92.25
64967;BME280;51710;38.732;-121.358;2024-02-15T03:25:29;101178.81;;;13.08;92.23
64967;BME280;51710;38.732;-121.358;2024-02-15T03:27:59;101192.53;;;13.05;92.35
64967;BME280;51710;38.732;-121.358;2024-02-15T03:30:31;101187.59;;;13.01;92.49
64967;BME280;51710;38.732;-121.358;2024-02-15T03:32:58;101187.94;;;12.98;92.86
64967;BME280;51710;38.732;-121.358;2024-02-15T03:35:26;101200.97;;;12.93;92.68
64967;BME280;51710;38.732;-121.358;2024-02-15T03:37:54;101205.47;;;12.92;92.79
64967;BME280;51710;38.732;-121.358;2024-02-15T03:40:22;101219.16;;;12.89;92.60
64967;BME280;51710;38.732;-121.358;2024-02-15T03:42:52;101220.97;;;12.89;92.78
64967;BME280;51710;38.732;-121.358;2024-02-15T03:45:20;101233.66;;;12.87;92.92
64967;BME280;51710;38.732;-121.358;2024-02-15T03:47:46;101244.34;;;12.87;93.33
64967;BME280;51710;38.732;-121.358;2024-02-15T03:50:15;101233.66;;;12.87;93.35
64967;BME280;51710;38.732;-121.358;2024-02-15T03:52:42;101247.88;;;12.87;93.64
64967;BME280;51710;38.732;-121.358;2024-02-15T03:55:09;101259.25;;;12.89;93.67
64967;BME280;51710;38.732;-121.358;2024-02-15T03:57:39;101268.28;;;12.88;93.90
64967;BME280;51710;38.732;-121.358;2024-02-15T04:00:15;101262.09;;;12.88;94.42
64967;BME280;51710;38.732;-121.358;2024-02-15T04:02:41;101267.59;;;12.86;94.23
64967;BME280;51710;38.732;-121.358;2024-02-15T04:05:10;101275.63;;;12.86;94.74
64967;BME280;51710;38.732;-121.358;2024-02-15T04:07:38;101270.09;;;12.88;94.68
64967;BME280;51710;38.732;-121.358;2024-02-15T04:10:07;101269.94;;;12.89;94.98
64967;BME280;51710;38.732;-121.358;2024-02-15T04:12:34;101272.25;;;12.84;95.22
64967;BME280;51710;38.732;-121.358;2024-02-15T04:15:00;101274.56;;;12.79;96.02
64967;BME280;51710;38.732;-121.358;2024-02-15T04:17:31;101275.34;;;12.72;96.08
64967;BME280;51710;38.732;-121.358;2024-02-15T04:20:00;101281.16;;;12.67;96.30
64967;BME280;51710;38.732;-121.358;2024-02-15T04:22:29;101259.28;;;12.64;96.71
64967;BME280;51710;38.732;-121.358;2024-02-15T04:25:07;101278.94;;;12.63;96.71
64967;BME280;51710;38.732;-121.358;2024-02-15T04:27:42;101287.97;;;12.62;96.49
64967;BME280;51710;38.732;-121.358;2024-02-15T04:30:09;101283.78;;;12.59;96.90
64967;BME280;51710;38.732;-121.358;2024-02-15T04:32:36;101287.44;;;12.58;96.93
64967;BME280;51710;38.732;-121.358;2024-02-15T04:35:03;101278.75;;;12.56;96.89
64967;BME280;51710;38.732;-121.358;2024-02-15T04:37:31;101284.09;;;12.56;97.03
64967;BME280;51710;38.732;-121.358;2024-02-15T04:39:58;101294.09;;;12.54;96.61
64967;BME280;51710;38.732;-121.358;2024-02-15T04:42:32;101300.97;;;12.57;96.91
64967;BME280;51710;38.732;-121.358;2024-02-15T04:45:00;101318.50;;;12.59;96.86
64967;BME280;51710;38.732;-121.358;2024-02-15T04:47:27;101316.00;;;12.58;96.60
64967;BME280;51710;38.732;-121.358;2024-02-15T04:49:58;101317.16;;;12.55;96.13
64967;BME280;51710;38.732;-121.358;2024-02-15T04:52:24;101321.81;;;12.53;96.05
64967;BME280;51710;38.732;-121.358;2024-02-15T04:54:51;101326.63;;;12.50;95.67
64967;BME280;51710;38.732;-121.358;2024-02-15T04:57:19;101322.41;;;12.47;95.93
64967;BME280;51710;38.732;-121.358;2024-02-15T04:59:46;101329.59;;;12.46;96.10
64967;BME280;51710;38.732;-121.358;2024-02-15T05:02:14;101330.06;;;12.42;96.13
64967;BME280;51710;38.732;-121.358;2024-02-15T05:04:40;101346.09;;;12.42;96.06
64967;BME280;51710;38.732;-121.358;2024-02-15T05:07:09;101352.28;;;12.42;95.71
64967;BME280;51710;38.732;-121.358;2024-02-15T05:09:36;101354.94;;;12.42;95.72
64967;BME280;51710;38.732;-121.358;2024-02-15T05:12:03;101364.94;;;12.40;95.80
64967;BME280;51710;38.732;-121.358;2024-02-15T05:14:31;101369.44;;;12.40;95.68
64967;BME280;51710;38.732;-121.358;2024-02-15T05:16:58;101365.09;;;12.39;95.82
64967;BME280;51710;38.732;-121.358;2024-02-15T05:19:25;101376.75;;;12.38;95.70
64967;BME280;51710;38.732;-121.358;2024-02-15T05:21:51;101365.09;;;12.39;95.69
64967;BME280;51710;38.732;-121.358;2024-02-15T05:24:17;101367.78;;;12.39;95.38
64967;BME280;51710;38.732;-121.358;2024-02-15T05:26:45;101378.44;;;12.39;95.43
64967;BME280;51710;38.732;-121.358;2024-02-15T05:29:16;101390.81;;;12.40;95.34
64967;BME280;51710;38.732;-121.358;2024-02-15T05:31:42;101384.66;;;12.39;95.39
64967;BME280;51710;38.732;-121.358;2024-02-15T05:34:10;101388.28;;;12.38;95.06
64967;BME280;51710;38.732;-121.358;2024-02-15T05:36:38;101392.78;;;12.38;95.36
64967;BME280;51710;38.732;-121.358;2024-02-15T05:39:04;101389.13;;;12.39;95.29
64967;BME280;51710;38.732;-121.358;2024-02-15T05:41:31;101391.81;;;12.39;95.10
64967;BME280;51710;38.732;-121.358;2024-02-15T05:44:01;101392.50;;;12.41;94.76
64967;BME280;51710;38.732;-121.358;2024-02-15T05:46:27;101398.13;;;12.38;94.22
64967;BME280;51710;38.732;-121.358;2024-02-15T05:48:56;101394.78;;;12.36;94.69
64967;BME280;51710;38.732;-121.358;2024-02-15T05:51:23;101403.78;;;12.35;94.50
64967;BME280;51710;38.732;-121.358;2024-02-15T05:53:49;101410.13;;;12.34;94.70
64967;BME280;51710;38.732;-121.358;2024-02-15T05:56:16;101419.97;;;12.33;94.16
64967;BME280;51710;38.732;-121.358;2024-02-15T05:58:42;101423.91;;;12.29;94.93
64967;BME280;51710;38.732;-121.358;2024-02-15T06:01:08;101414.22;;;12.28;94.58
64967;BME280;51710;38.732;-121.358;2024-02-15T06:03:37;101419.41;;;12.30;94.36
64967;BME280;51710;38.732;-121.358;2024-02-15T06:06:04;101407.06;;;12.29;94.63
64967;BME280;51710;38.732;-121.358;2024-02-15T06:08:34;101415.91;;;12.29;94.44
64967;BME280;51710;38.732;-121.358;2024-02-15T06:11:00;101416.91;;;12.28;94.56
64967;BME280;51710;38.732;-121.358;2024-02-15T06:13:31;101410.03;;;12.26;94.63
64967;BME280;51710;38.732;-121.358;2024-02-15T06:15:58;101417.88;;;12.27;94.61
64967;BME280;51710;38.732;-121.358;2024-02-15T06:18:28;101418.72;;;12.28;94.44
64967;BME280;51710;38.732;-121.358;2024-02-15T06:20:55;101414.22;;;12.28;94.57
64967;BME280;51710;38.732;-121.358;2024-02-15T06:23:28;101414.22;;;12.28;94.52
64967;BME280;51710;38.732;-121.358;2024-02-15T06:25:56;101418.56;;;12.29;94.33
64967;BME280;51710;38.732;-121.358;2024-02-15T06:28:24;101427.44;;;12.30;94.11
64967;BME280;51710;38.732;-121.358;2024-02-15T06:31:10;101422.94;;;12.30;94.10
64967;BME280;51710;38.732;-121.358;2024-02-15T06:33:55;101428.13;;;12.32;94.66
64967;BME280;51710;38.732;-121.358;2024-02-15T06:36:46;101424.75;;;12.30;94.06
64967;BME280;51710;38.732;-121.358;2024-02-15T06:39:31;101435.59;;;12.28;94.26
64967;BME280;51710;38.732;-121.358;2024-02-15T06:42:15;101432.22;;;12.26;94.00
64967;BME280;51710;38.732;-121.358;2024-02-15T06:44:48;101444.75;;;12.26;94.26
64967;BME280;51710;38.732;-121.358;2024-02-15T06:47:15;101451.09;;;12.25;94.14
64967;BME280;51710;38.732;-121.358;2024-02-15T06:49:46;101449.38;;;12.24;94.32
64967;BME280;51710;38.732;-121.358;2024-02-15T06:52:12;101461.91;;;12.23;94.25
64967;BME280;51710;38.732;-121.358;2024-02-15T06:54:39;101462.72;;;12.24;94.81
64967;BME280;51710;38.732;-121.358;2024-02-15T06:57:06;101471.75;;;12.23;94.46
64967;BME280;51710;38.732;-121.358;2024-02-15T06:59:33;101480.59;;;12.23;94.63
64967;BME280;51710;38.732;-121.358;2024-02-15T07:02:03;101482.13;;;12.26;94.64
64967;BME280;51710;38.732;-121.358;2024-02-15T07:04:33;101478.47;;;12.27;94.81
64967;BME280;51710;38.732;-121.358;2024-02-15T07:07:00;101475.81;;;12.27;94.84
64967;BME280;51710;38.732;-121.358;2024-02-15T07:09:27;101466.09;;;12.26;94.68
64967;BME280;51710;38.732;-121.358;2024-02-15T07:11:54;101479.44;;;12.26;94.84
64967;BME280;51710;38.732;-121.358;2024-02-15T07:14:20;101502.22;;;12.30;94.68
64967;BME280;51710;38.732;-121.358;2024-02-15T07:16:48;101515.25;;;12.33;94.75
64967;BME280;51710;38.732;-121.358;2024-02-15T07:19:15;101511.47;;;12.35;94.59
64967;BME280;51710;38.732;-121.358;2024-02-15T07:21:42;101501.47;;;12.37;94.42
64967;BME280;51710;38.732;-121.358;2024-02-15T07:24:09;101490.94;;;12.36;94.40
64967;BME280;51710;38.732;-121.358;2024-02-15T07:26:36;101488.56;;;12.33;94.48
64967;BME280;51710;38.732;-121.358;2024-02-15T07:29:03;101480.84;;;12.30;94.51
64967;BME280;51710;38.732;-121.358;2024-02-15T07:31:34;101476.63;;;12.27;93.99
64967;BME280;51710;38.732;-121.358;2024-02-15T07:34:00;101478.91;;;12.22;93.70
64967;BME280;51710;38.732;-121.358;2024-02-15T07:36:26;101479.69;;;12.15;94.08
64967;BME280;51710;38.732;-121.358;2024-02-15T07:38:53;101486.28;;;12.11;94.47
64967;BME280;51710;38.732;-121.358;2024-02-15T07:41:23;101496.28;;;12.09;94.58
64967;BME280;51710;38.732;-121.358;2024-02-15T07:43:50;101493.75;;;12.07;94.92
64967;BME280;51710;38.732;-121.358;2024-02-15T07:46:18;101502.63;;;12.08;94.69
64967;BME280;51710;38.732;-121.358;2024-02-15T07:48:45;101494.75;;;12.06;94.85
64967;BME280;51710;38.732;-121.358;2024-02-15T07:51:16;101491.94;;;12.08;95.36
64967;BME280;51710;38.732;-121.358;2024-02-15T07:53:44;101481.25;;;12.08;94.81
64967;BME280;51710;38.732;-121.358;2024-02-15T07:56:11;101472.41;;;12.07;95.10
64967;BME280;51710;38.732;-121.358;2024-02-15T07:58:41;101485.19;;;12.04;95.05
64967;BME280;51710;38.732;-121.358;2024-02-15T08:01:08;101497.00;;;12.01;95.13
64967;BME280;51710;38.732;-121.358;2024-02-15T08:03:37;101498.69;;;12.02;95.29
64967;BME280;51710;38.732;-121.358;2024-02-15T08:06:08;101504.91;;;12.03;95.56
64967;BME280;51710;38.732;-121.358;2024-02-15T08:08:35;101498.69;;;12.02;95.32
64967;BME280;51710;38.732;-121.358;2024-02-15T08:11:04;101511.34;;;12.00;94.97
64967;BME280;51710;38.732;-121.358;2024-02-15T08:13:31;101521.19;;;12.00;95.26
64967;BME280;51710;38.732;-121.358;2024-02-15T08:15:57;101512.47;;;11.98;94.99
64967;BME280;51710;38.732;-121.358;2024-02-15T08:18:23;101528.78;;;11.95;95.13
64967;BME280;51710;38.732;-121.358;2024-02-15T08:20:51;101531.75;;;11.92;95.04
64967;BME280;51710;38.732;-121.358;2024-02-15T08:23:18;101526.84;;;11.87;95.18
64967;BME280;51710;38.732;-121.358;2024-02-15T08:25:44;101532.63;;;11.83;95.14
64967;BME280;51710;38.732;-121.358;2024-02-15T08:28:10;101535.59;;;11.80;95.23
64967;BME280;51710;38.732;-121.358;2024-02-15T08:30:37;101543.19;;;11.75;95.77
64967;BME280;51710;38.732;-121.358;2024-02-15T08:33:03;101547.13;;;11.71;95.71
64967;BME280;51710;38.732;-121.358;2024-02-15T08:35:30;101550.78;;;11.70;95.90
64967;BME280;51710;38.732;-121.358;2024-02-15T08:37:57;101557.94;;;11.69;96.17
64967;BME280;51710;38.732;-121.358;2024-02-15T08:40:24;101562.44;;;11.69;95.84
64967;BME280;51710;38.732;-121.358;2024-02-15T08:42:53;101571.84;;;11.73;96.74
64967;BME280;51710;38.732;-121.358;2024-02-15T08:45:21;101589.25;;;11.77;96.12
64967;BME280;51710;38.732;-121.358;2024-02-15T08:47:47;101588.13;;;11.79;96.04
64967;BME280;51710;38.732;-121.358;2024-02-15T08:50:15;101591.47;;;11.81;96.41
64967;BME280;51710;38.732;-121.358;2024-02-15T08:52:43;101592.34;;;11.82;96.11
64967;BME280;51710;38.732;-121.358;2024-02-15T08:55:10;101591.34;;;11.83;96.01
64967;BME280;51710;38.732;-121.358;2024-02-15T08:57:40;101592.03;;;11.85;95.92
64967;BME280;51710;38.732;-121.358;2024-02-15T09:00:11;101602.56;;;11.86;95.81
64967;BME280;51710;38.732;-121.358;2024-02-15T09:02:45;101602.41;;;11.88;96.10
64967;BME280;51710;38.732;-121.358;2024-02-15T09:05:12;101605.78;;;11.90;95.92
64967;BME280;51710;38.732;-121.358;2024-02-15T09:07:41;101611.84;;;11.92;95.36
64967;BME280;51710;38.732;-121.358;2024-02-15T09:10:09;101608.59;;;11.88;95.45
64967;BME280;51710;38.732;-121.358;2024-02-15T09:12:37;101615.75;;;11.88;95.42
64967;BME280;51710;38.732;-121.358;2024-02-15T09:15:10;101604.94;;;11.89;95.50
64967;BME280;51710;38.732;-121.358;2024-02-15T09:17:37;101614.50;;;11.92;95.57
64967;BME280;51710;38.732;-121.358;2024-02-15T09:20:08;101607.47;;;11.91;95.51
64967;BME280;51710;38.732;-121.358;2024-02-15T09:22:58;101603.81;;;11.92;95.69
64967;BME280;51710;38.732;-121.358;2024-02-15T09:25:26;101615.19;;;11.94;95.19
64967;BME280;51710;38.732;-121.358;2024-02-15T09:27:52;101600.16;;;11.93;95.26
64967;BME280;51710;38.732;-121.358;2024-02-15T09:30:21;101602.81;;;11.93;94.92
64967;BME280;51710;38.732;-121.358;2024-02-15T09:32:50;101600.44;;;11.90;94.97
64967;BME280;51710;38.732;-121.358;2024-02-15T09:35:17;101604.13;;;11.89;95.54
64967;BME280;51710;38.732;-121.358;2024-02-15T09:37:45;101605.78;;;11.90;95.49
64967;BME280;51710;38.732;-121.358;2024-02-15T09:40:15;101605.78;;;11.90;95.38
64967;BME280;51710;38.732;-121.358;2024-02-15T09:42:43;101608.47;;;11.90;95.37
64967;BME280;51710;38.732;-121.358;2024-02-15T09:45:13;101607.59;;;11.89;94.95
64967;BME280;51710;38.732;-121.358;2024-02-15T09:47:44;101596.13;;;11.89;95.29
64967;BME280;51710;38.732;-121.358;2024-02-15T09:50:12;101597.94;;;11.88;95.44
64967;BME280;51710;38.732;-121.358;2024-02-15T09:53:00;101598.22;;;11.85;95.08
64967;BME280;51710;38.732;-121.358;2024-02-15T09:55:34;101611.69;;;11.84;94.74
64967;BME280;51710;38.732;-121.358;2024-02-15T09:58:01;101612.97;;;11.80;94.72
64967;BME280;51710;38.732;-121.358;2024-02-15T10:00:27;101600.75;;;11.77;94.58
64967;BME280;51710;38.732;-121.358;2024-02-15T10:02:53;101601.19;;;11.73;94.69
64967;BME280;51710;38.732;-121.358;2024-02-15T10:05:21;101606.81;;;11.70;94.87
64967;BME280;51710;38.732;-121.358;2024-02-15T10:07:48;101609.50;;;11.70;94.72
64967;BME280;51710;38.732;-121.358;2024-02-15T10:10:16;101612.28;;;11.68;94.99
64967;BME280;51710;38.732;-121.358;2024-02-15T10:12:43;101618.47;;;11.69;94.99
64967;BME280;51710;38.732;-121.358;2024-02-15T10:15:09;101634.63;;;11.67;94.28
64967;BME280;51710;38.732;-121.358;2024-02-15T10:17:36;101635.72;;;11.65;94.74
64967;BME280;51710;38.732;-121.358;2024-02-15T10:20:06;101644.59;;;11.65;94.85
64967;BME280;51710;38.732;-121.358;2024-02-15T10:22:32;101649.91;;;11.65;94.39
64967;BME280;51710;38.732;-121.358;2024-02-15T10:25:27;101650.03;;;11.64;94.60
64967;BME280;51710;38.732;-121.358;2024-02-15T10:28:10;101642.03;;;11.64;94.27
64967;BME280;51710;38.732;-121.358;2024-02-15T10:30:39;101645.69;;;11.63;94.15
64967;BME280;51710;38.732;-121.358;2024-02-15T10:33:06;101646.66;;;11.62;94.67
64967;BME280;51710;38.732;-121.358;2024-02-15T10:35:36;101653.00;;;11.61;94.10
64967;BME280;51710;38.732;-121.358;2024-02-15T10:38:07;101658.59;;;11.58;94.37
64967;BME280;51710;38.732;-121.358;2024-02-15T10:40:37;101654.41;;;11.55;93.90
64967;BME280;51710;38.732;-121.358;2024-02-15T10:43:04;101648.50;;;11.52;94.22
64967;BME280;51710;38.732;-121.358;2024-02-15T10:45:32;101654.94;;;11.49;94.22
64967;BME280;51710;38.732;-121.358;2024-02-15T10:47:59;101647.22;;;11.46;94.27
64967;BME280;51710;38.732;-121.358;2024-02-15T10:50:25;101644.72;;;11.45;94.46
64967;BME280;51710;38.732;-121.358;2024-02-15T10:52:55;101645.94;;;11.41;94.39
64967;BME280;51710;38.732;-121.358;2024-02-15T10:55:44;101647.25;;;11.37;94.26
64967;BME280;51710;38.732;-121.358;2024-02-15T10:58:19;101636.81;;;11.33;94.31
64967;BME280;51710;38.732;-121.358;2024-02-15T11:00:47;101635.44;;;11.29;94.66
64967;BME280;51710;38.732;-121.358;2024-02-15T11:03:25;101630.22;;;11.28;94.41
64967;BME280;51710;38.732;-121.358;2024-02-15T11:05:55;101625.75;;;11.28;94.67
64967;BME280;51710;38.732;-121.358;2024-02-15T11:08:24;101628.69;;;11.25;94.28
64967;BME280;51710;38.732;-121.358;2024-02-15T11:10:50;101622.66;;;11.23;94.33
64967;BME280;51710;38.732;-121.358;2024-02-15T11:13:17;101644.13;;;11.22;94.51
64967;BME280;51710;38.732;-121.358;2024-02-15T11:15:46;101653.94;;;11.21;94.51
64967;BME280;51710;38.732;-121.358;2024-02-15T11:18:45;101655.75;;;11.21;94.63
64967;BME280;51710;38.732;-121.358;2024-02-15T11:21:21;101668.13;;;11.22;94.38
64967;BME280;51710;38.732;-121.358;2024-02-15T11:24:25;101673.44;;;11.22;94.38
64967;BME280;51710;38.732;-121.358;2024-02-15T11:26:51;101676.25;;;11.20;94.12
64967;BME280;51710;38.732;-121.358;2024-02-15T11:29:52;101689.59;;;11.20;94.75
64967;BME280;51710;38.732;-121.358;2024-02-15T11:32:48;101691.13;;;11.23;94.68
64967;BME280;51710;38.732;-121.358;2024-02-15T11:35:26;101682.97;;;11.24;93.87
64967;BME280;51710;38.732;-121.358;2024-02-15T11:37:57;101687.34;;;11.25;94.33
64967;BME280;51710;38.732;-121.358;2024-02-15T11:40:28;101686.34;;;11.26;94.17
64967;BME280;51710;38.732;-121.358;2024-02-15T11:42:56;101687.06;;;11.28;94.10
64967;BME280;51710;38.732;-121.358;2024-02-15T11:45:27;101687.78;;;11.30;93.91
64967;BME280;51710;38.732;-121.358;2024-02-15T11:48:08;101690.44;;;11.30;94.21
64967;BME280;51710;38.732;-121.358;2024-02-15T11:50:37;101694.78;;;11.31;94.20
64967;BME280;51710;38.732;-121.358;2024-02-15T11:53:06;101686.66;;;11.33;94.06
64967;BME280;51710;38.732;-121.358;2024-02-15T11:55:36;101685.53;;;11.35;94.21
64967;BME280;51710;38.732;-121.358;2024-02-15T11:58:08;101688.19;;;11.35;94.24
64967;BME280;51710;38.732;-121.358;2024-02-15T12:00:35;101689.91;;;11.37;94.46
64967;BME280;51710;38.732;-121.358;2024-02-15T12:03:20;101701.00;;;11.42;94.62
64967;BME280;51710;38.732;-121.358;2024-02-15T12:06:05;101695.66;;;11.42;94.55
64967;BME280;51710;38.732;-121.358;2024-02-15T12:08:53;101700.72;;;11.45;93.92
64967;BME280;51710;38.732;-121.358;2024-02-15T12:11:39;101704.09;;;11.47;94.13
64967;BME280;51710;38.732;-121.358;2024-02-15T12:14:24;101696.78;;;11.49;93.75
64967;BME280;51710;38.732;-121.358;2024-02-15T12:17:12;101702.13;;;11.49;94.24
64967;BME280;51710;38.732;-121.358;2024-02-15T12:20:02;101707.47;;;11.49;93.65
64967;BME280;51710;38.732;-121.358;2024-02-15T12:22:44;101703.81;;;11.50;93.76
64967;BME280;51710;38.732;-121.358;2024-02-15T12:25:15;101698.47;;;11.50;93.84
64967;BME280;51710;38.732;-121.358;2024-02-15T12:27:42;101701.84;;;11.52;93.93
64967;BME280;51710;38.732;-121.358;2024-02-15T12:30:19;101700.13;;;11.51;94.17
64967;BME280;51710;38.732;-121.358;2024-02-15T12:32:51;101700.13;;;11.51;93.57